Erding, Germany

1:23 PM CET on December 25, 2014 (GMT +0100)
Munich | Change Station
CLOSE
Current Station
Airport
Location: Munich,
Elevation: 1486 ft
Nearby Weather Stations

Elev 1486 ft 48.35 °N, 11.81 °E | Updated 33 minutes ago

Mostly Cloudy
Mostly Cloudy
39 °F
Feels Like 33 °F
N
9
Wind Variable Wind from West

Today
High -- | Low -- °F
--% Chance of Precip.
Yesterday
High -- | Low -- °F
Precip. -- in
8:02 AM 4:22 PM
Waxing Crescent, 16% visible
Pressure 30.24 in
Visibility 6.2 miles
Clouds Few 2600 ft
Mostly Cloudy 6000 ft
Mostly Cloudy 14000 ft
Windchill 33 °F
Dew Point 32 °F
Humidity 75%
Rainfall 0.00 in
Snow Depth Not available.
UV 1 out of 12
Pollen Not available.
Air Quality Not available.
Flu Activity Not available.
METAR EDDM 251150Z 28008KT 240V310 9999 FEW026 BKN060 BKN140 04/M00 Q1024 NOSIG

More Conditions Fewer Conditions

Pressure 30.24 in
Visibility 6.2 miles
Clouds Few 2600 ft
Mostly Cloudy 6000 ft
Mostly Cloudy 14000 ft
Windchill 33 °F
Dew Point 32 °F
Humidity 75%
Rainfall 0.00 in
Snow Depth Not available.
UV 1 out of 12
Pollen Not available.
Air Quality Not available.
Flu Activity Not available.
METAR EDDM 251150Z 28008KT 240V310 9999 FEW026 BKN060 BKN140 04/M00 Q1024 NOSIG

More Conditions Fewer Conditions

10-Day Weather Forecast

Almanac

Astronomy

Dec. 25, 2014 Rise Set
Actual Time
Civil Twilight
Nautical Twilight
Astronomical Twilight
Moon
Length of Visible Light
Length of Day
Tomorrow will be .
, % of the Moon is Illuminated

Today's Extremes

Country Highs Country Lows

Community

WunderPhotos

Upload Photos

1,780,266 photos uploaded!

WunderBlogs® & News

Nearby

Air Quality

  Air Quality AQ Index Pollutant
Not available.

Snow Depth

Station Depth Elevation

Earthquake Activity

City Distance Mag. Time & Date
Minimum magnitude displayed is 2.5.

Coastal Water Temperatures

Place Temperature

Nearby Weather Stations